sensor_id;sensor_type;location;lat;lon;timestamp;temperature;humidity
9450;DHT22;4763;48.370;10.874;2023-09-19T00:00:06;16.00;99.90
9450;DHT22;4763;48.370;10.874;2023-09-19T00:02:33;16.10;99.90
9450;DHT22;4763;48.370;10.874;2023-09-19T00:05:02;16.10;99.90
9450;DHT22;4763;48.370;10.874;2023-09-19T00:07:30;16.10;99.90
9450;DHT22;4763;48.370;10.874;2023-09-19T00:09:57;16.20;99.90
9450;DHT22;4763;48.370;10.874;2023-09-19T00:12:24;16.20;99.90
9450;DHT22;4763;48.370;10.874;2023-09-19T00:14:52;16.20;99.90
9450;DHT22;4763;48.370;10.874;2023-09-19T00:17:19;16.30;99.90
9450;DHT22;4763;48.370;10.874;2023-09-19T00:19:46;16.30;99.90
9450;DHT22;4763;48.370;10.874;2023-09-19T00:22:17;16.20;99.90
9450;DHT22;4763;48.370;10.874;2023-09-19T00:24:44;16.30;99.90
9450;DHT22;4763;48.370;10.874;2023-09-19T00:27:11;16.30;99.90
9450;DHT22;4763;48.370;10.874;2023-09-19T00:29:38;16.20;99.90
9450;DHT22;4763;48.370;10.874;2023-09-19T00:32:07;16.30;99.90
9450;DHT22;4763;48.370;10.874;2023-09-19T00:34:34;16.30;99.90
9450;DHT22;4763;48.370;10.874;2023-09-19T00:37:01;16.30;99.90
9450;DHT22;4763;48.370;10.874;2023-09-19T00:39:29;16.30;99.90
9450;DHT22;4763;48.370;10.874;2023-09-19T00:41:57;16.30;99.90
9450;DHT22;4763;48.370;10.874;2023-09-19T00:44:23;16.20;99.90
9450;DHT22;4763;48.370;10.874;2023-09-19T00:46:50;16.20;99.90
9450;DHT22;4763;48.370;10.874;2023-09-19T00:49:20;16.20;99.90
9450;DHT22;4763;48.370;10.874;2023-09-19T00:51:48;16.20;99.90
9450;DHT22;4763;48.370;10.874;2023-09-19T00:54:15;16.20;99.90
9450;DHT22;4763;48.370;10.874;2023-09-19T00:56:44;16.20;99.90
9450;DHT22;4763;48.370;10.874;2023-09-19T00:59:12;16.10;99.90
9450;DHT22;4763;48.370;10.874;2023-09-19T01:01:39;16.10;99.90
9450;DHT22;4763;48.370;10.874;2023-09-19T01:04:06;16.10;99.90
9450;DHT22;4763;48.370;10.874;2023-09-19T01:06:35;16.10;99.90
9450;DHT22;4763;48.370;10.874;2023-09-19T01:09:05;16.10;99.90
9450;DHT22;4763;48.370;10.874;2023-09-19T01:11:37;16.10;99.90
9450;DHT22;4763;48.370;10.874;2023-09-19T01:14:14;16.20;99.90
9450;DHT22;4763;48.370;10.874;2023-09-19T01:16:50;16.20;99.90
9450;DHT22;4763;48.370;10.874;2023-09-19T01:22:53;16.20;99.90
9450;DHT22;4763;48.370;10.874;2023-09-19T01:28:34;16.20;99.90
9450;DHT22;4763;48.370;10.874;2023-09-19T01:31:10;16.20;99.90
9450;DHT22;4763;48.370;10.874;2023-09-19T01:33:58;16.20;99.90
9450;DHT22;4763;48.370;10.874;2023-09-19T01:36:31;16.20;99.90
9450;DHT22;4763;48.370;10.874;2023-09-19T01:39:02;16.20;99.90
9450;DHT22;4763;48.370;10.874;2023-09-19T01:41:45;16.20;99.90
9450;DHT22;4763;48.370;10.874;2023-09-19T01:44:20;16.20;99.90
9450;DHT22;4763;48.370;10.874;2023-09-19T01:46:50;16.20;99.90
9450;DHT22;4763;48.370;10.874;2023-09-19T01:49:25;16.20;99.90
9450;DHT22;4763;48.370;10.874;2023-09-19T01:52:02;16.20;99.90
9450;DHT22;4763;48.370;10.874;2023-09-19T01:54:33;16.20;99.90
9450;DHT22;4763;48.370;10.874;2023-09-19T01:57:09;16.20;99.90
9450;DHT22;4763;48.370;10.874;2023-09-19T01:59:40;16.20;99.90
9450;DHT22;4763;48.370;10.874;2023-09-19T02:02:09;16.20;99.90
9450;DHT22;4763;48.370;10.874;2023-09-19T02:04:37;16.10;99.90
9450;DHT22;4763;48.370;10.874;2023-09-19T02:07:04;16.10;99.90
9450;DHT22;4763;48.370;10.874;2023-09-19T02:09:33;16.10;99.90
9450;DHT22;4763;48.370;10.874;2023-09-19T02:12:01;16.10;99.90
9450;DHT22;4763;48.370;10.874;2023-09-19T02:14:29;16.20;99.90
9450;DHT22;4763;48.370;10.874;2023-09-19T02:16:56;16.10;99.90
9450;DHT22;4763;48.370;10.874;2023-09-19T02:19:24;16.10;99.90
9450;DHT22;4763;48.370;10.874;2023-09-19T02:21:51;16.10;99.90
9450;DHT22;4763;48.370;10.874;2023-09-19T02:24:18;16.10;99.90
9450;DHT22;4763;48.370;10.874;2023-09-19T02:26:45;16.10;99.90
9450;DHT22;4763;48.370;10.874;2023-09-19T02:29:12;16.10;99.90
9450;DHT22;4763;48.370;10.874;2023-09-19T02:31:40;16.10;99.90
9450;DHT22;4763;48.370;10.874;2023-09-19T02:34:06;16.10;99.90
9450;DHT22;4763;48.370;10.874;2023-09-19T02:36:35;16.10;99.90
9450;DHT22;4763;48.370;10.874;2023-09-19T02:39:04;16.20;99.90
9450;DHT22;4763;48.370;10.874;2023-09-19T02:41:33;16.20;99.90
9450;DHT22;4763;48.370;10.874;2023-09-19T02:44:00;16.10;99.90
9450;DHT22;4763;48.370;10.874;2023-09-19T02:46:28;16.20;99.90
9450;DHT22;4763;48.370;10.874;2023-09-19T02:48:55;16.20;99.90
9450;DHT22;4763;48.370;10.874;2023-09-19T02:51:22;16.10;99.90
9450;DHT22;4763;48.370;10.874;2023-09-19T02:53:51;16.20;99.90
9450;DHT22;4763;48.370;10.874;2023-09-19T02:56:20;16.30;99.90
9450;DHT22;4763;48.370;10.874;2023-09-19T02:58:48;16.20;99.90
9450;DHT22;4763;48.370;10.874;2023-09-19T03:01:15;16.30;99.90
9450;DHT22;4763;48.370;10.874;2023-09-19T03:03:42;16.30;99.90
9450;DHT22;4763;48.370;10.874;2023-09-19T03:06:09;16.30;99.90
9450;DHT22;4763;48.370;10.874;2023-09-19T03:08:36;16.30;99.90
9450;DHT22;4763;48.370;10.874;2023-09-19T03:11:06;16.20;99.90
9450;DHT22;4763;48.370;10.874;2023-09-19T03:13:36;16.20;99.90
9450;DHT22;4763;48.370;10.874;2023-09-19T03:16:03;16.20;99.90
9450;DHT22;4763;48.370;10.874;2023-09-19T03:18:31;16.20;99.90
9450;DHT22;4763;48.370;10.874;2023-09-19T03:20:58;16.20;99.90
9450;DHT22;4763;48.370;10.874;2023-09-19T03:23:27;16.20;99.90
9450;DHT22;4763;48.370;10.874;2023-09-19T03:25:54;16.20;99.90
9450;DHT22;4763;48.370;10.874;2023-09-19T03:28:23;16.20;99.90
9450;DHT22;4763;48.370;10.874;2023-09-19T03:31:00;16.20;99.90
9450;DHT22;4763;48.370;10.874;2023-09-19T03:33:27;16.20;99.90
9450;DHT22;4763;48.370;10.874;2023-09-19T03:35:54;16.20;99.90
9450;DHT22;4763;48.370;10.874;2023-09-19T03:38:23;16.20;99.90
9450;DHT22;4763;48.370;10.874;2023-09-19T03:40:50;16.20;99.90
9450;DHT22;4763;48.370;10.874;2023-09-19T03:43:17;16.20;99.90
9450;DHT22;4763;48.370;10.874;2023-09-19T03:45:46;16.20;99.90
9450;DHT22;4763;48.370;10.874;2023-09-19T03:48:13;16.20;99.90
9450;DHT22;4763;48.370;10.874;2023-09-19T03:50:39;16.30;99.90
9450;DHT22;4763;48.370;10.874;2023-09-19T03:53:06;16.30;99.90
9450;DHT22;4763;48.370;10.874;2023-09-19T03:55:33;16.30;99.90
9450;DHT22;4763;48.370;10.874;2023-09-19T03:58:01;16.30;99.90
9450;DHT22;4763;48.370;10.874;2023-09-19T04:00:29;16.30;99.90
9450;DHT22;4763;48.370;10.874;2023-09-19T04:02:57;16.40;99.90
9450;DHT22;4763;48.370;10.874;2023-09-19T04:05:26;16.30;99.90
9450;DHT22;4763;48.370;10.874;2023-09-19T04:07:53;16.40;99.90
9450;DHT22;4763;48.370;10.874;2023-09-19T04:10:20;16.30;99.90
9450;DHT22;4763;48.370;10.874;2023-09-19T04:12:53;16.40;99.90
9450;DHT22;4763;48.370;10.874;2023-09-19T04:15:20;16.40;99.90
9450;DHT22;4763;48.370;10.874;2023-09-19T04:17:48;16.30;99.90
9450;DHT22;4763;48.370;10.874;2023-09-19T04:20:17;16.30;99.90
9450;DHT22;4763;48.370;10.874;2023-09-19T04:22:45;16.30;99.90
9450;DHT22;4763;48.370;10.874;2023-09-19T04:25:11;16.30;99.90
9450;DHT22;4763;48.370;10.874;2023-09-19T04:27:38;16.30;99.90
9450;DHT22;4763;48.370;10.874;2023-09-19T04:30:06;16.30;99.90
9450;DHT22;4763;48.370;10.874;2023-09-19T04:32:37;16.30;99.90
9450;DHT22;4763;48.370;10.874;2023-09-19T04:35:06;16.30;99.90
9450;DHT22;4763;48.370;10.874;2023-09-19T04:37:37;16.30;99.90
9450;DHT22;4763;48.370;10.874;2023-09-19T04:40:06;16.20;99.90
9450;DHT22;4763;48.370;10.874;2023-09-19T04:42:38;16.20;99.90
9450;DHT22;4763;48.370;10.874;2023-09-19T04:45:06;16.20;99.90
9450;DHT22;4763;48.370;10.874;2023-09-19T04:47:33;16.20;99.90
9450;DHT22;4763;48.370;10.874;2023-09-19T04:50:00;16.10;99.90
9450;DHT22;4763;48.370;10.874;2023-09-19T04:52:26;16.10;99.90
9450;DHT22;4763;48.370;10.874;2023-09-19T04:54:54;16.10;99.90
9450;DHT22;4763;48.370;10.874;2023-09-19T04:57:21;16.20;99.90
9450;DHT22;4763;48.370;10.874;2023-09-19T04:59:48;16.10;99.90
9450;DHT22;4763;48.370;10.874;2023-09-19T05:02:15;16.10;99.90
9450;DHT22;4763;48.370;10.874;2023-09-19T05:04:43;16.10;99.90
9450;DHT22;4763;48.370;10.874;2023-09-19T05:07:10;16.10;99.90
9450;DHT22;4763;48.370;10.874;2023-09-19T05:09:37;16.00;99.90
9450;DHT22;4763;48.370;10.874;2023-09-19T05:12:06;16.00;99.90
9450;DHT22;4763;48.370;10.874;2023-09-19T05:14:36;16.00;99.90
9450;DHT22;4763;48.370;10.874;2023-09-19T05:17:03;16.00;99.90
9450;DHT22;4763;48.370;10.874;2023-09-19T05:19:30;15.90;99.90
9450;DHT22;4763;48.370;10.874;2023-09-19T05:21:57;16.00;99.90
9450;DHT22;4763;48.370;10.874;2023-09-19T05:24:24;16.00;99.90
9450;DHT22;4763;48.370;10.874;2023-09-19T05:26:52;16.00;99.90
9450;DHT22;4763;48.370;10.874;2023-09-19T05:29:22;16.00;99.90
9450;DHT22;4763;48.370;10.874;2023-09-19T05:31:49;16.10;99.90
9450;DHT22;4763;48.370;10.874;2023-09-19T05:34:21;16.10;99.90
9450;DHT22;4763;48.370;10.874;2023-09-19T05:36:48;16.00;99.90
9450;DHT22;4763;48.370;10.874;2023-09-19T05:39:15;16.10;99.90
9450;DHT22;4763;48.370;10.874;2023-09-19T05:41:42;16.10;99.90
9450;DHT22;4763;48.370;10.874;2023-09-19T05:44:09;16.10;99.90
9450;DHT22;4763;48.370;10.874;2023-09-19T05:46:37;16.20;99.90
9450;DHT22;4763;48.370;10.874;2023-09-19T05:49:04;16.20;99.90
9450;DHT22;4763;48.370;10.874;2023-09-19T05:51:31;16.30;99.90
9450;DHT22;4763;48.370;10.874;2023-09-19T05:53:58;16.30;99.90
9450;DHT22;4763;48.370;10.874;2023-09-19T05:56:25;16.30;99.90
9450;DHT22;4763;48.370;10.874;2023-09-19T05:58:52;16.30;99.90
9450;DHT22;4763;48.370;10.874;2023-09-19T06:01:19;16.30;99.90
9450;DHT22;4763;48.370;10.874;2023-09-19T06:03:47;16.30;99.90
9450;DHT22;4763;48.370;10.874;2023-09-19T06:06:14;16.40;99.90
9450;DHT22;4763;48.370;10.874;2023-09-19T06:08:41;16.50;99.90
9450;DHT22;4763;48.370;10.874;2023-09-19T06:11:10;16.50;99.90
9450;DHT22;4763;48.370;10.874;2023-09-19T06:13:37;16.50;99.90
9450;DHT22;4763;48.370;10.874;2023-09-19T06:16:04;16.60;99.90
9450;DHT22;4763;48.370;10.874;2023-09-19T06:18:31;16.60;99.90
9450;DHT22;4763;48.370;10.874;2023-09-19T06:21:00;16.70;99.90
9450;DHT22;4763;48.370;10.874;2023-09-19T06:23:33;16.70;99.90
9450;DHT22;4763;48.370;10.874;2023-09-19T06:25:59;16.70;99.90
9450;DHT22;4763;48.370;10.874;2023-09-19T06:28:26;16.70;99.90
9450;DHT22;4763;48.370;10.874;2023-09-19T06:30:54;16.70;99.90
9450;DHT22;4763;48.370;10.874;2023-09-19T06:33:20;16.80;99.90
9450;DHT22;4763;48.370;10.874;2023-09-19T06:35:49;16.80;99.90
9450;DHT22;4763;48.370;10.874;2023-09-19T06:38:25;16.80;99.90
9450;DHT22;4763;48.370;10.874;2023-09-19T06:40:53;16.80;99.90
9450;DHT22;4763;48.370;10.874;2023-09-19T06:43:20;16.80;99.90
9450;DHT22;4763;48.370;10.874;2023-09-19T06:45:46;16.80;99.90
9450;DHT22;4763;48.370;10.874;2023-09-19T06:48:13;16.80;99.90
9450;DHT22;4763;48.370;10.874;2023-09-19T06:50:40;16.90;99.90
9450;DHT22;4763;48.370;10.874;2023-09-19T06:53:07;17.00;99.90
9450;DHT22;4763;48.370;10.874;2023-09-19T06:55:36;17.10;99.90
9450;DHT22;4763;48.370;10.874;2023-09-19T06:58:03;17.20;99.90
9450;DHT22;4763;48.370;10.874;2023-09-19T07:00:31;17.30;99.90
9450;DHT22;4763;48.370;10.874;2023-09-19T07:03:03;17.30;99.90
9450;DHT22;4763;48.370;10.874;2023-09-19T07:05:36;17.30;99.90
9450;DHT22;4763;48.370;10.874;2023-09-19T07:08:05;17.30;99.90
9450;DHT22;4763;48.370;10.874;2023-09-19T07:10:32;17.30;99.90
9450;DHT22;4763;48.370;10.874;2023-09-19T07:13:02;17.30;99.90
9450;DHT22;4763;48.370;10.874;2023-09-19T07:15:32;17.30;99.90
9450;DHT22;4763;48.370;10.874;2023-09-19T07:18:01;17.30;99.90
9450;DHT22;4763;48.370;10.874;2023-09-19T07:20:27;17.30;99.90
9450;DHT22;4763;48.370;10.874;2023-09-19T07:22:57;17.30;99.90
9450;DHT22;4763;48.370;10.874;2023-09-19T07:25:25;17.30;99.90
9450;DHT22;4763;48.370;10.874;2023-09-19T07:27:52;17.30;99.90
9450;DHT22;4763;48.370;10.874;2023-09-19T07:30:22;17.30;99.90
9450;DHT22;4763;48.370;10.874;2023-09-19T07:32:49;17.30;99.90
9450;DHT22;4763;48.370;10.874;2023-09-19T07:35:16;17.50;99.90
9450;DHT22;4763;48.370;10.874;2023-09-19T07:37:45;17.70;99.90
9450;DHT22;4763;48.370;10.874;2023-09-19T07:40:15;17.80;99.90
9450;DHT22;4763;48.370;10.874;2023-09-19T07:42:42;17.90;99.90
9450;DHT22;4763;48.370;10.874;2023-09-19T07:45:10;18.00;99.90
9450;DHT22;4763;48.370;10.874;2023-09-19T07:47:44;18.10;99.90
9450;DHT22;4763;48.370;10.874;2023-09-19T07:50:30;18.10;99.90
9450;DHT22;4763;48.370;10.874;2023-09-19T07:53:17;18.20;99.90
9450;DHT22;4763;48.370;10.874;2023-09-19T07:56:05;18.20;99.90
9450;DHT22;4763;48.370;10.874;2023-09-19T07:58:53;18.30;99.90
9450;DHT22;4763;48.370;10.874;2023-09-19T08:01:40;18.50;99.90
9450;DHT22;4763;48.370;10.874;2023-09-19T08:04:28;18.70;99.90
9450;DHT22;4763;48.370;10.874;2023-09-19T08:07:18;18.70;99.90
9450;DHT22;4763;48.370;10.874;2023-09-19T08:10:06;18.80;99.90
9450;DHT22;4763;48.370;10.874;2023-09-19T08:12:58;18.80;99.90
9450;DHT22;4763;48.370;10.874;2023-09-19T08:15:46;18.80;99.90
9450;DHT22;4763;48.370;10.874;2023-09-19T08:18:33;18.90;99.90
9450;DHT22;4763;48.370;10.874;2023-09-19T08:21:22;18.90;99.90
9450;DHT22;4763;48.370;10.874;2023-09-19T08:24:09;19.00;99.90
9450;DHT22;4763;48.370;10.874;2023-09-19T08:26:57;19.30;99.90
9450;DHT22;4763;48.370;10.874;2023-09-19T08:29:44;19.40;99.90
9450;DHT22;4763;48.370;10.874;2023-09-19T08:32:32;19.50;99.90
9450;DHT22;4763;48.370;10.874;2023-09-19T08:35:19;19.60;99.90
9450;DHT22;4763;48.370;10.874;2023-09-19T08:38:07;19.70;99.90
9450;DHT22;4763;48.370;10.874;2023-09-19T08:40:56;19.70;99.90
9450;DHT22;4763;48.370;10.874;2023-09-19T08:43:44;19.90;99.90
9450;DHT22;4763;48.370;10.874;2023-09-19T08:46:34;20.10;99.90
9450;DHT22;4763;48.370;10.874;2023-09-19T08:49:31;20.00;99.90
9450;DHT22;4763;48.370;10.874;2023-09-19T08:52:23;19.70;99.90
9450;DHT22;4763;48.370;10.874;2023-09-19T08:55:14;19.70;99.90
9450;DHT22;4763;48.370;10.874;2023-09-19T08:58:12;19.90;99.90
9450;DHT22;4763;48.370;10.874;2023-09-19T09:01:05;20.30;99.90
9450;DHT22;4763;48.370;10.874;2023-09-19T09:03:55;20.70;99.90
9450;DHT22;4763;48.370;10.874;2023-09-19T09:06:44;21.40;99.90
9450;DHT22;4763;48.370;10.874;2023-09-19T09:09:34;21.80;99.90
9450;DHT22;4763;48.370;10.874;2023-09-19T09:12:23;21.70;99.90
9450;DHT22;4763;48.370;10.874;2023-09-19T09:15:12;21.40;99.90
9450;DHT22;4763;48.370;10.874;2023-09-19T09:18:03;21.40;99.90
9450;DHT22;4763;48.370;10.874;2023-09-19T09:20:50;21.40;99.90
9450;DHT22;4763;48.370;10.874;2023-09-19T09:23:38;21.10;99.90
9450;DHT22;4763;48.370;10.874;2023-09-19T09:26:41;21.20;99.90
9450;DHT22;4763;48.370;10.874;2023-09-19T09:29:46;21.30;99.90
9450;DHT22;4763;48.370;10.874;2023-09-19T09:32:35;21.50;99.90
9450;DHT22;4763;48.370;10.874;2023-09-19T09:35:23;21.60;99.90
9450;DHT22;4763;48.370;10.874;2023-09-19T09:38:10;21.50;99.90
9450;DHT22;4763;48.370;10.874;2023-09-19T09:41:00;21.70;99.90
9450;DHT22;4763;48.370;10.874;2023-09-19T09:43:47;21.90;99.90
9450;DHT22;4763;48.370;10.874;2023-09-19T09:46:37;21.70;99.90
9450;DHT22;4763;48.370;10.874;2023-09-19T09:50:01;21.30;99.90
9450;DHT22;4763;48.370;10.874;2023-09-19T09:53:03;21.30;99.90
9450;DHT22;4763;48.370;10.874;2023-09-19T09:56:03;21.80;99.90
9450;DHT22;4763;48.370;10.874;2023-09-19T09:58:52;21.70;99.90
9450;DHT22;4763;48.370;10.874;2023-09-19T10:01:49;21.80;99.90
9450;DHT22;4763;48.370;10.874;2023-09-19T10:04:39;21.60;99.90
9450;DHT22;4763;48.370;10.874;2023-09-19T10:07:37;22.00;99.90
9450;DHT22;4763;48.370;10.874;2023-09-19T10:10:31;22.20;99.90
9450;DHT22;4763;48.370;10.874;2023-09-19T10:13:30;22.40;99.90
9450;DHT22;4763;48.370;10.874;2023-09-19T10:16:19;22.30;99.90
9450;DHT22;4763;48.370;10.874;2023-09-19T10:19:08;22.10;99.90
9450;DHT22;4763;48.370;10.874;2023-09-19T10:21:55;22.10;99.90
9450;DHT22;4763;48.370;10.874;2023-09-19T10:24:43;22.40;99.90
9450;DHT22;4763;48.370;10.874;2023-09-19T10:27:33;22.60;99.90
9450;DHT22;4763;48.370;10.874;2023-09-19T10:30:24;23.00;99.90
9450;DHT22;4763;48.370;10.874;2023-09-19T10:33:15;23.30;99.90
9450;DHT22;4763;48.370;10.874;2023-09-19T10:36:05;23.20;99.90
9450;DHT22;4763;48.370;10.874;2023-09-19T10:38:53;23.10;99.90
9450;DHT22;4763;48.370;10.874;2023-09-19T10:41:41;23.10;99.90
9450;DHT22;4763;48.370;10.874;2023-09-19T10:44:31;23.10;99.90
9450;DHT22;4763;48.370;10.874;2023-09-19T10:47:19;23.50;99.90
9450;DHT22;4763;48.370;10.874;2023-09-19T10:50:07;23.40;99.90
9450;DHT22;4763;48.370;10.874;2023-09-19T10:53:00;23.10;99.90
9450;DHT22;4763;48.370;10.874;2023-09-19T10:55:51;23.10;99.90
9450;DHT22;4763;48.370;10.874;2023-09-19T10:58:40;23.20;99.90
9450;DHT22;4763;48.370;10.874;2023-09-19T11:01:42;22.90;99.90
9450;DHT22;4763;48.370;10.874;2023-09-19T11:04:31;22.70;99.90
9450;DHT22;4763;48.370;10.874;2023-09-19T11:07:19;22.50;99.90
9450;DHT22;4763;48.370;10.874;2023-09-19T11:13:30;22.30;99.90
9450;DHT22;4763;48.370;10.874;2023-09-19T11:16:20;22.50;99.90
9450;DHT22;4763;48.370;10.874;2023-09-19T11:19:09;22.60;99.90
9450;DHT22;4763;48.370;10.874;2023-09-19T11:21:59;22.50;99.90
9450;DHT22;4763;48.370;10.874;2023-09-19T11:24:47;22.10;99.90
9450;DHT22;4763;48.370;10.874;2023-09-19T11:27:35;21.80;99.90
9450;DHT22;4763;48.370;10.874;2023-09-19T11:30:31;21.30;99.90
9450;DHT22;4763;48.370;10.874;2023-09-19T11:33:20;20.90;99.90
9450;DHT22;4763;48.370;10.874;2023-09-19T11:36:10;20.60;99.90
9450;DHT22;4763;48.370;10.874;2023-09-19T11:39:00;20.40;99.90
9450;DHT22;4763;48.370;10.874;2023-09-19T11:42:00;20.30;99.90
9450;DHT22;4763;48.370;10.874;2023-09-19T11:44:49;20.40;99.90
9450;DHT22;4763;48.370;10.874;2023-09-19T11:47:38;20.60;99.90
9450;DHT22;4763;48.370;10.874;2023-09-19T11:50:25;20.70;99.90
9450;DHT22;4763;48.370;10.874;2023-09-19T11:53:13;21.40;99.90
9450;DHT22;4763;48.370;10.874;2023-09-19T11:56:06;22.10;99.90
9450;DHT22;4763;48.370;10.874;2023-09-19T11:58:56;22.30;99.90
9450;DHT22;4763;48.370;10.874;2023-09-19T12:01:52;22.60;99.90
9450;DHT22;4763;48.370;10.874;2023-09-19T12:04:44;22.80;99.90
9450;DHT22;4763;48.370;10.874;2023-09-19T12:07:43;23.20;99.90
9450;DHT22;4763;48.370;10.874;2023-09-19T12:10:33;23.40;99.90
9450;DHT22;4763;48.370;10.874;2023-09-19T12:13:20;23.60;99.90
9450;DHT22;4763;48.370;10.874;2023-09-19T12:16:12;23.70;99.90
9450;DHT22;4763;48.370;10.874;2023-09-19T12:19:18;23.30;99.90
9450;DHT22;4763;48.370;10.874;2023-09-19T12:22:06;23.60;99.90
9450;DHT22;4763;48.370;10.874;2023-09-19T12:25:05;23.70;99.90
9450;DHT22;4763;48.370;10.874;2023-09-19T12:27:53;23.60;99.90
9450;DHT22;4763;48.370;10.874;2023-09-19T12:30:43;23.60;99.90
9450;DHT22;4763;48.370;10.874;2023-09-19T12:33:31;24.00;99.90
9450;DHT22;4763;48.370;10.874;2023-09-19T12:36:21;24.30;99.90
9450;DHT22;4763;48.370;10.874;2023-09-19T12:39:23;24.70;99.90
9450;DHT22;4763;48.370;10.874;2023-09-19T12:42:11;24.70;99.90
9450;DHT22;4763;48.370;10.874;2023-09-19T12:45:00;24.60;99.90
9450;DHT22;4763;48.370;10.874;2023-09-19T12:48:19;24.50;99.90
9450;DHT22;4763;48.370;10.874;2023-09-19T12:51:15;25.00;99.90
9450;DHT22;4763;48.370;10.874;2023-09-19T12:54:06;25.00;99.90
9450;DHT22;4763;48.370;10.874;2023-09-19T12:56:54;24.80;99.90
9450;DHT22;4763;48.370;10.874;2023-09-19T12:59:41;24.60;99.90
9450;DHT22;4763;48.370;10.874;2023-09-19T13:02:28;24.20;99.90
9450;DHT22;4763;48.370;10.874;2023-09-19T13:05:16;24.10;99.90
9450;DHT22;4763;48.370;10.874;2023-09-19T13:08:18;24.40;99.90
9450;DHT22;4763;48.370;10.874;2023-09-19T13:11:12;24.60;99.90
9450;DHT22;4763;48.370;10.874;2023-09-19T13:14:14;25.10;99.90
9450;DHT22;4763;48.370;10.874;2023-09-19T13:17:03;24.80;99.90
9450;DHT22;4763;48.370;10.874;2023-09-19T13:19:52;25.30;99.90
9450;DHT22;4763;48.370;10.874;2023-09-19T13:22:41;25.30;99.90
9450;DHT22;4763;48.370;10.874;2023-09-19T13:25:30;24.90;99.90
9450;DHT22;4763;48.370;10.874;2023-09-19T13:28:20;24.70;99.90
9450;DHT22;4763;48.370;10.874;2023-09-19T13:31:07;25.50;99.90
9450;DHT22;4763;48.370;10.874;2023-09-19T13:33:56;25.30;99.90
9450;DHT22;4763;48.370;10.874;2023-09-19T13:36:44;25.50;99.90
9450;DHT22;4763;48.370;10.874;2023-09-19T13:39:33;26.00;99.90
9450;DHT22;4763;48.370;10.874;2023-09-19T13:42:21;25.70;99.90
9450;DHT22;4763;48.370;10.874;2023-09-19T13:45:10;26.30;99.90
9450;DHT22;4763;48.370;10.874;2023-09-19T13:47:57;26.40;99.90
9450;DHT22;4763;48.370;10.874;2023-09-19T13:50:45;26.20;99.90
9450;DHT22;4763;48.370;10.874;2023-09-19T13:53:32;26.00;99.90
9450;DHT22;4763;48.370;10.874;2023-09-19T13:56:19;25.80;99.90
9450;DHT22;4763;48.370;10.874;2023-09-19T13:59:07;26.30;99.90
9450;DHT22;4763;48.370;10.874;2023-09-19T14:01:56;26.40;99.90
9450;DHT22;4763;48.370;10.874;2023-09-19T14:04:43;26.30;99.90
9450;DHT22;4763;48.370;10.874;2023-09-19T14:07:30;26.80;99.90
9450;DHT22;4763;48.370;10.874;2023-09-19T14:10:17;27.20;99.90
9450;DHT22;4763;48.370;10.874;2023-09-19T14:13:04;26.90;99.90
9450;DHT22;4763;48.370;10.874;2023-09-19T14:15:51;27.00;99.90
9450;DHT22;4763;48.370;10.874;2023-09-19T14:18:41;27.00;99.90
9450;DHT22;4763;48.370;10.874;2023-09-19T14:21:28;27.10;99.90
9450;DHT22;4763;48.370;10.874;2023-09-19T14:24:17;27.00;99.90
9450;DHT22;4763;48.370;10.874;2023-09-19T14:27:04;26.90;99.90
9450;DHT22;4763;48.370;10.874;2023-09-19T14:29:52;27.40;99.90
9450;DHT22;4763;48.370;10.874;2023-09-19T14:32:39;27.40;99.90
9450;DHT22;4763;48.370;10.874;2023-09-19T14:35:28;27.20;99.90
9450;DHT22;4763;48.370;10.874;2023-09-19T14:38:15;27.10;99.90
9450;DHT22;4763;48.370;10.874;2023-09-19T14:41:03;27.40;99.90
9450;DHT22;4763;48.370;10.874;2023-09-19T14:43:50;27.20;99.90
9450;DHT22;4763;48.370;10.874;2023-09-19T14:46:38;27.00;99.90
9450;DHT22;4763;48.370;10.874;2023-09-19T14:49:25;27.40;99.90
9450;DHT22;4763;48.370;10.874;2023-09-19T14:52:13;27.70;99.90
9450;DHT22;4763;48.370;10.874;2023-09-19T14:55:01;27.60;99.90
9450;DHT22;4763;48.370;10.874;2023-09-19T14:57:50;27.60;99.90
9450;DHT22;4763;48.370;10.874;2023-09-19T15:00:38;27.40;99.90
9450;DHT22;4763;48.370;10.874;2023-09-19T15:03:25;27.40;99.90
9450;DHT22;4763;48.370;10.874;2023-09-19T15:06:14;26.80;99.90
9450;DHT22;4763;48.370;10.874;2023-09-19T15:09:04;26.40;99.90
9450;DHT22;4763;48.370;10.874;2023-09-19T15:11:53;26.50;99.90
9450;DHT22;4763;48.370;10.874;2023-09-19T15:14:40;26.60;99.90
9450;DHT22;4763;48.370;10.874;2023-09-19T15:17:28;26.30;99.90
9450;DHT22;4763;48.370;10.874;2023-09-19T15:20:15;25.90;99.90
9450;DHT22;4763;48.370;10.874;2023-09-19T15:23:03;25.30;99.90
9450;DHT22;4763;48.370;10.874;2023-09-19T15:25:52;25.10;99.90
9450;DHT22;4763;48.370;10.874;2023-09-19T15:28:42;25.10;99.90
9450;DHT22;4763;48.370;10.874;2023-09-19T15:31:29;24.70;99.90
9450;DHT22;4763;48.370;10.874;2023-09-19T15:34:16;24.20;99.90
9450;DHT22;4763;48.370;10.874;2023-09-19T15:37:03;24.00;99.90
9450;DHT22;4763;48.370;10.874;2023-09-19T15:39:51;23.80;99.90
9450;DHT22;4763;48.370;10.874;2023-09-19T15:42:40;23.70;99.90
9450;DHT22;4763;48.370;10.874;2023-09-19T15:45:27;23.60;99.90
9450;DHT22;4763;48.370;10.874;2023-09-19T15:48:14;23.60;99.90
9450;DHT22;4763;48.370;10.874;2023-09-19T15:51:03;23.50;99.90
9450;DHT22;4763;48.370;10.874;2023-09-19T15:53:51;23.40;99.90
9450;DHT22;4763;48.370;10.874;2023-09-19T15:56:39;23.20;99.90
9450;DHT22;4763;48.370;10.874;2023-09-19T15:59:29;23.10;99.90
9450;DHT22;4763;48.370;10.874;2023-09-19T16:02:41;23.00;99.90
9450;DHT22;4763;48.370;10.874;2023-09-19T16:05:46;22.90;99.90
9450;DHT22;4763;48.370;10.874;2023-09-19T16:08:33;22.80;99.90
9450;DHT22;4763;48.370;10.874;2023-09-19T16:11:22;22.70;99.90
9450;DHT22;4763;48.370;10.874;2023-09-19T16:25:37;22.20;99.90
9450;DHT22;4763;48.370;10.874;2023-09-19T16:28:26;22.10;99.90
9450;DHT22;4763;48.370;10.874;2023-09-19T16:31:32;21.90;99.90
9450;DHT22;4763;48.370;10.874;2023-09-19T16:34:22;21.80;99.90
9450;DHT22;4763;48.370;10.874;2023-09-19T16:37:13;21.70;99.90
9450;DHT22;4763;48.370;10.874;2023-09-19T16:40:10;21.60;99.90
9450;DHT22;4763;48.370;10.874;2023-09-19T16:43:09;21.50;99.90
9450;DHT22;4763;48.370;10.874;2023-09-19T16:46:00;21.40;99.90
9450;DHT22;4763;48.370;10.874;2023-09-19T16:48:50;21.30;99.90
9450;DHT22;4763;48.370;10.874;2023-09-19T16:51:39;21.30;99.90
9450;DHT22;4763;48.370;10.874;2023-09-19T16:54:31;21.20;99.90
9450;DHT22;4763;48.370;10.874;2023-09-19T16:57:20;21.10;99.90
9450;DHT22;4763;48.370;10.874;2023-09-19T17:00:11;21.00;99.90
9450;DHT22;4763;48.370;10.874;2023-09-19T17:03:00;21.00;99.90
9450;DHT22;4763;48.370;10.874;2023-09-19T17:05:49;20.80;99.90
9450;DHT22;4763;48.370;10.874;2023-09-19T17:08:37;20.80;99.90
9450;DHT22;4763;48.370;10.874;2023-09-19T17:11:25;20.70;99.90
9450;DHT22;4763;48.370;10.874;2023-09-19T17:14:12;20.50;99.90
9450;DHT22;4763;48.370;10.874;2023-09-19T17:17:00;20.40;99.90
9450;DHT22;4763;48.370;10.874;2023-09-19T17:19:48;20.30;99.90
9450;DHT22;4763;48.370;10.874;2023-09-19T17:22:35;20.30;99.90
9450;DHT22;4763;48.370;10.874;2023-09-19T17:25:22;20.10;99.90